ENTO/TRF METAR and TAF weather

Enter ICAO airport designator
Station Type Date Time Source
ENTO METAR 2023/06/04 01:20 UTC NOAA

ENTO 040120Z AUTO 01006KT 9999 NCD 08/08 Q1020


Station Type Date Time Source
ENTO Decoded METAR 2023/06/04 01:20 UTC NOAA

Torp, Norway (ENTO) 59-12N 010-16E 88M
Jun 03, 2023 - 09:20 PM EDT / 2023.06.04 0120 UTC
Wind: from the N (010 degrees) at 7 MPH (6 KT):0
Visibility: greater than 7 mile(s):0
Temperature: 46 F (8 C)
Dew Point: 46 F (8 C)
Relative Humidity: 100%
Pressure (altimeter): 30.12 in. Hg (1020 hPa)
ob: ENTO 040120Z AUTO 01006KT 9999 NCD 08/08 Q1020
cycle: 1

Station Type Date Time Source
ENTO TAF 2023/06/03 18:39 UTC NOAA

TAF ENTO 031700Z 0318/0418 20010KT CAVOK
BECMG 0323/0401 02008KT
BECMG 0414/0416 22010KT

Example: see airport list